Pagina principale
METAR-TAF:

METAR-TAF

Aeroporti :

Aeroporto di Reggio Calabria

Reggio Calabria, Italia

latitudine: 38-04N, longitudine: 015-39E, altezza: 11 m

Osservazione

Il bollettino è stato emesso 48 minuti fa, alle 17:50 UTC
Vento 11 kt da nord
Temperature 18°C
Umidità 73%
Pressione 1010 hPa
Visibilità 10 km o più
Poco nuvoloso ad un'altezza di 3000 ft

METAR: LICR 191750Z 01011KT 9999 FEW030 18/13 Q1010

Ora: 20:38 (18:38 UTC)

Previsione

Il bollettino è stato emesso 1 ora e 38 minuti fa, alle 17:00 UTC
Previsione valida dal 19 alle 18 UTC al 20 alle 18 UTC
Vento 15 kt da nord
Visibilità 10 km o più
Nubi sparse ad un'altezza di 3000 ft
Evoluzione graduale
dal 19 alle 21 UTC al 19 alle 24 UTC
Vento 5 kt da direzioni variabili
Evoluzione graduale
dal 20 alle 08 UTC al 20 alle 10 UTC
Vento 12 kt da nord

TAF: LICR 191700Z 1918/2018 35015KT 9999 SCT030 BECMG 1921/1924 VRB05KT BECMG 2008/2010 35012KT

Osservazioni e previsioni meteorologiche di più di 4000 aeroporti (messaggi METAR e TAF).

Le stazioni disponibili sono rappresentate dai dischi gialli e rossi sulla carta.

Puntare il mouse per vedere il nome della stazione.

Clicca sopra per visualizzare le osservazioni e previsioni meteorologiche.

Per cambiare la mappa : fare clic sui pulsanti verdi con una croce nera per ingrandire, il pulsante verde con un trattino per diminuire, o sulla freccia verde per le mappe adiacenti.


METAR-TAF: